createdAt,value
2018-06-29T00:00:45.256Z,86.18
2018-06-29T00:01:45.283Z,86.47
2018-06-29T00:02:45.302Z,86.76
2018-06-29T00:03:45.325Z,86.76
2018-06-29T00:04:45.352Z,87.34
2018-06-29T00:05:45.376Z,86.85
2018-06-29T00:06:45.396Z,87.24
2018-06-29T00:07:45.420Z,87.34
2018-06-29T00:08:45.446Z,87.53
2018-06-29T00:09:45.469Z,87.43
2018-06-29T00:10:45.491Z,87.72
2018-06-29T00:11:45.516Z,87.92
2018-06-29T00:12:45.537Z,87.92
2018-06-29T00:13:45.559Z,87.92
2018-06-29T00:14:45.587Z,87.82
2018-06-29T00:15:45.606Z,88.30
2018-06-29T00:16:45.630Z,88.68
2018-06-29T00:17:45.653Z,88.68
2018-06-29T00:18:45.675Z,88.59
2018-06-29T00:19:45.699Z,88.78
2018-06-29T00:20:45.725Z,88.87
2018-06-29T00:21:45.749Z,88.78
2018-06-29T00:22:45.772Z,89.16
2018-06-29T00:23:45.791Z,89.26
2018-06-29T00:24:45.818Z,89.54
2018-06-29T00:25:45.842Z,89.54
2018-06-29T00:26:46.046Z,90.03
2018-06-29T00:27:45.892Z,89.89
2018-06-29T00:28:46.077Z,89.83
2018-06-29T00:29:45.931Z,90.17
2018-06-29T00:30:45.954Z,89.79
2018-06-29T00:31:45.979Z,90.17
2018-06-29T00:32:46.001Z,89.69
2018-06-29T00:33:46.027Z,90.56
2018-06-29T00:34:46.050Z,90.37
2018-06-29T00:35:46.070Z,90.56
2018-06-29T00:36:46.097Z,90.56
2018-06-29T00:37:46.119Z,90.84
2018-06-29T00:38:46.143Z,90.75
2018-06-29T00:39:46.165Z,90.84
2018-06-29T00:40:46.189Z,90.75
2018-06-29T00:41:46.213Z,90.66
2018-06-29T00:42:46.231Z,91.61
2018-06-29T00:43:46.257Z,91.33
2018-06-29T00:44:46.278Z,91.13
2018-06-29T00:45:46.317Z,91.23
2018-06-29T00:46:46.324Z,91.42
2018-06-29T00:47:46.349Z,91.52
2018-06-29T00:48:46.370Z,91.71
2018-06-29T00:49:46.393Z,91.13
2018-06-29T00:50:46.418Z,91.33
2018-06-29T00:51:46.442Z,91.71
2018-06-29T00:52:46.462Z,91.71
2018-06-29T00:53:46.488Z,91.81
2018-06-29T00:54:46.508Z,91.90
2018-06-29T00:55:46.535Z,91.81
2018-06-29T00:56:46.560Z,91.61
2018-06-29T00:57:46.578Z,91.96
2018-06-29T00:58:46.600Z,92.05
2018-06-29T00:59:46.625Z,92.14
2018-06-29T01:00:46.648Z,92.33
2018-06-29T01:01:46.673Z,92.14
2018-06-29T01:02:46.691Z,92.91
2018-06-29T01:03:46.716Z,92.53
2018-06-29T01:04:46.740Z,92.72
2018-06-29T01:05:46.763Z,93.39
2018-06-29T01:06:46.784Z,93.10
2018-06-29T01:07:46.808Z,93.39
2018-06-29T01:08:46.832Z,93.49
2018-06-29T01:09:46.855Z,93.68
2018-06-29T01:10:46.881Z,93.30
2018-06-29T01:11:46.900Z,93.49
2018-06-29T01:12:46.924Z,92.91
2018-06-29T01:13:46.948Z,93.49
2018-06-29T01:14:46.967Z,93.30
2018-06-29T01:15:46.992Z,93.39
2018-06-29T01:16:47.016Z,93.59
2018-06-29T01:17:47.034Z,93.10
2018-06-29T01:18:47.060Z,93.54
2018-06-29T01:19:47.082Z,93.77
2018-06-29T01:20:47.104Z,93.68
2018-06-29T01:21:47.125Z,93.39
2018-06-29T01:22:47.149Z,93.68
2018-06-29T01:23:47.170Z,92.63
2018-06-29T01:24:47.194Z,93.20
2018-06-29T01:25:47.217Z,92.82
2018-06-29T01:26:47.238Z,93.20
2018-06-29T01:27:47.264Z,92.91
2018-06-29T01:28:47.291Z,93.25
2018-06-29T01:29:47.306Z,93.10
2018-06-29T01:30:47.330Z,93.30
2018-06-29T01:31:47.351Z,93.68
2018-06-29T01:32:47.376Z,93.63
2018-06-29T01:33:47.403Z,93.68
2018-06-29T01:34:47.419Z,93.77
2018-06-29T01:35:47.442Z,93.63
2018-06-29T01:36:47.468Z,93.25
2018-06-29T01:37:47.487Z,93.63
2018-06-29T01:38:47.512Z,94.02
2018-06-29T01:39:47.538Z,94.31
2018-06-29T01:40:47.557Z,94.12
2018-06-29T01:41:47.581Z,93.92
2018-06-29T01:42:47.600Z,94.79
2018-06-29T01:43:47.624Z,94.88
2018-06-29T01:44:47.648Z,95.17
2018-06-29T01:45:47.671Z,95.46
2018-06-29T01:46:47.692Z,95.07
2018-06-29T01:47:47.712Z,94.69
2018-06-29T01:48:47.737Z,94.40
2018-06-29T01:49:47.758Z,95.36
2018-06-29T01:50:47.780Z,95.75
2018-06-29T01:51:47.804Z,95.75
2018-06-29T01:52:47.829Z,95.84
2018-06-29T01:53:47.848Z,95.36
2018-06-29T01:54:47.875Z,95.46
2018-06-29T01:55:47.892Z,96.03
2018-06-29T01:56:47.917Z,96.13
2018-06-29T01:57:47.942Z,96.22
2018-06-29T01:58:47.959Z,96.42
2018-06-29T01:59:47.985Z,96.80
2018-06-29T02:00:48.005Z,96.61
2018-06-29T02:01:48.028Z,96.70
2018-06-29T02:02:48.050Z,96.80
2018-06-29T02:03:48.072Z,97.56
2018-06-29T02:04:48.100Z,97.09
2018-06-29T02:05:48.117Z,97.09
2018-06-29T02:06:48.141Z,97.09
2018-06-29T02:07:48.164Z,97.86
2018-06-29T02:08:48.187Z,97.56
2018-06-29T02:09:48.208Z,97.76
2018-06-29T02:10:48.231Z,98.38
2018-06-29T02:11:48.251Z,97.90
2018-06-29T02:12:48.273Z,98.38
2018-06-29T02:13:48.297Z,98.43
2018-06-29T02:14:48.320Z,98.86
2018-06-29T02:15:48.344Z,99.24
2018-06-29T02:16:48.363Z,98.96
2018-06-29T02:17:48.388Z,99.05
2018-06-29T02:18:48.414Z,99.24
2018-06-29T02:19:48.431Z,99.63
2018-06-29T02:20:48.453Z,98.96
2018-06-29T02:21:48.477Z,99.24
2018-06-29T02:22:48.497Z,98.96
2018-06-29T02:23:48.521Z,98.86
2018-06-29T02:24:48.541Z,99.34
2018-06-29T02:25:48.564Z,99.91
2018-06-29T02:26:48.584Z,99.99
2018-06-29T02:27:48.607Z,99.99
2018-06-29T02:28:48.629Z,99.99
2018-06-29T02:29:48.651Z,99.99
2018-06-29T02:30:48.796Z,99.99
2018-06-29T02:31:48.696Z,99.99
2018-06-29T02:32:48.720Z,99.99
2018-06-29T02:33:48.742Z,99.99
2018-06-29T02:34:48.762Z,99.82
2018-06-29T02:35:48.791Z,99.99
2018-06-29T02:36:48.809Z,99.99
2018-06-29T02:37:48.831Z,99.99
2018-06-29T02:38:48.852Z,99.99
2018-06-29T02:39:48.872Z,99.99
2018-06-29T02:40:48.899Z,99.99
2018-06-29T02:41:48.917Z,99.99
2018-06-29T02:42:48.941Z,99.99
2018-06-29T02:43:48.963Z,99.99
2018-06-29T02:44:48.985Z,99.99
2018-06-29T02:45:49.009Z,99.99
2018-06-29T02:46:49.034Z,99.99
2018-06-29T02:47:49.055Z,99.99
2018-06-29T02:48:49.075Z,99.99
2018-06-29T02:49:49.093Z,99.99
2018-06-29T02:50:49.117Z,99.99
2018-06-29T02:51:49.192Z,99.99
2018-06-29T02:52:49.162Z,99.99
2018-06-29T02:53:49.185Z,99.99
2018-06-29T02:54:49.203Z,99.99
2018-06-29T02:55:49.233Z,99.99
2018-06-29T02:56:49.251Z,99.99
2018-06-29T02:57:49.269Z,99.99
2018-06-29T02:58:49.294Z,99.99
2018-06-29T02:59:49.316Z,99.99
2018-06-29T03:00:49.339Z,99.99
2018-06-29T03:01:49.358Z,99.99
2018-06-29T03:02:49.379Z,99.99
2018-06-29T03:03:49.401Z,99.99
2018-06-29T03:04:49.425Z,99.99
2018-06-29T03:05:49.448Z,99.99
2018-06-29T03:06:49.475Z,99.99
2018-06-29T03:07:49.491Z,99.99
2018-06-29T03:08:49.511Z,99.99
2018-06-29T03:09:49.536Z,99.99
2018-06-29T03:10:49.576Z,99.99
2018-06-29T03:11:49.576Z,99.99
2018-06-29T03:12:49.602Z,99.99
2018-06-29T03:13:49.620Z,99.99
2018-06-29T03:14:49.644Z,99.99
2018-06-29T03:15:49.665Z,99.99
2018-06-29T03:16:49.685Z,99.99
2018-06-29T03:17:49.708Z,99.99
2018-06-29T03:18:49.733Z,99.99
2018-06-29T03:19:49.757Z,99.99
2018-06-29T03:20:49.773Z,99.99
2018-06-29T03:21:49.797Z,99.99
2018-06-29T03:22:49.819Z,99.99
2018-06-29T03:23:49.840Z,99.99
2018-06-29T03:24:49.858Z,99.99
2018-06-29T03:25:49.885Z,99.99
2018-06-29T03:26:49.905Z,99.99
2018-06-29T03:27:49.924Z,99.99
2018-06-29T03:28:49.949Z,99.99
2018-06-29T03:29:49.968Z,99.99
2018-06-29T03:30:49.989Z,99.99
2018-06-29T03:31:50.013Z,99.99
2018-06-29T03:32:50.033Z,99.99
2018-06-29T03:33:50.060Z,99.99
2018-06-29T03:34:50.075Z,99.99
2018-06-29T03:35:50.100Z,99.99
2018-06-29T03:36:50.120Z,99.99
2018-06-29T03:37:50.142Z,99.99
2018-06-29T03:38:50.167Z,99.99
2018-06-29T03:39:50.184Z,99.99
2018-06-29T03:40:50.208Z,99.99
2018-06-29T03:41:50.228Z,99.99
2018-06-29T03:42:50.253Z,99.99
2018-06-29T03:43:50.270Z,99.99
2018-06-29T03:44:50.294Z,99.99
2018-06-29T03:45:50.317Z,99.99
2018-06-29T03:46:50.337Z,99.99
2018-06-29T03:47:50.357Z,99.99
2018-06-29T03:48:50.381Z,99.99
2018-06-29T03:49:50.400Z,99.99
2018-06-29T03:50:50.424Z,99.99
2018-06-29T03:51:50.442Z,99.99
2018-06-29T03:52:50.467Z,99.99
2018-06-29T03:53:50.490Z,99.99
2018-06-29T03:54:50.509Z,99.99
2018-06-29T03:55:50.531Z,99.99
2018-06-29T03:56:50.550Z,99.99
2018-06-29T03:57:50.572Z,99.99
2018-06-29T03:58:50.593Z,99.99
2018-06-29T03:59:50.617Z,99.99
2018-06-29T04:00:50.639Z,99.99
2018-06-29T04:01:50.659Z,99.99
2018-06-29T04:02:50.678Z,99.99
2018-06-29T04:03:50.702Z,99.99
2018-06-29T04:04:50.726Z,99.99
2018-06-29T04:05:50.745Z,99.99
2018-06-29T04:06:50.769Z,99.99
2018-06-29T04:07:50.786Z,99.99
2018-06-29T04:08:50.814Z,99.99
2018-06-29T04:09:50.834Z,99.99
2018-06-29T04:10:50.852Z,99.99
2018-06-29T04:11:50.877Z,99.99
2018-06-29T04:12:50.933Z,99.99
2018-06-29T04:13:50.920Z,99.99
2018-06-29T04:14:50.938Z,99.99
2018-06-29T04:15:50.961Z,99.99
2018-06-29T04:16:50.982Z,99.99
2018-06-29T04:17:51.024Z,99.99
2018-06-29T04:18:51.028Z,99.99
2018-06-29T04:19:51.046Z,99.99
2018-06-29T04:20:51.073Z,99.99
2018-06-29T04:21:51.090Z,99.99
2018-06-29T04:22:51.113Z,99.99
2018-06-29T04:23:51.134Z,99.99
2018-06-29T04:24:51.155Z,99.99
2018-06-29T04:25:51.177Z,99.99
2018-06-29T04:26:51.201Z,99.99
2018-06-29T04:27:51.220Z,99.99
2018-06-29T04:28:51.243Z,99.99
2018-06-29T04:29:51.263Z,99.99
2018-06-29T04:30:51.288Z,99.99
2018-06-29T04:31:51.308Z,99.99
2018-06-29T04:32:51.354Z,99.99
2018-06-29T04:33:51.353Z,99.99
2018-06-29T04:34:51.375Z,99.99
2018-06-29T04:35:51.395Z,99.99
2018-06-29T04:36:51.418Z,99.99
2018-06-29T04:37:51.437Z,99.99
2018-06-29T04:38:51.462Z,99.99
2018-06-29T04:39:51.484Z,99.99
2018-06-29T04:40:51.505Z,99.99
2018-06-29T04:41:51.524Z,99.99
2018-06-29T04:42:51.553Z,99.99
2018-06-29T04:43:51.570Z,99.99
2018-06-29T04:44:51.590Z,99.99
2018-06-29T04:45:51.615Z,99.99
2018-06-29T04:46:51.633Z,99.99
2018-06-29T04:47:51.657Z,99.99
2018-06-29T04:48:51.676Z,99.99
2018-06-29T04:49:51.699Z,99.99
2018-06-29T04:50:51.721Z,99.99
2018-06-29T04:51:51.744Z,99.99
2018-06-29T04:52:51.769Z,99.99
2018-06-29T04:53:51.790Z,99.99
2018-06-29T04:54:51.811Z,99.99
2018-06-29T04:55:51.832Z,99.99
2018-06-29T04:56:51.855Z,99.99
2018-06-29T04:57:51.877Z,99.99
2018-06-29T04:58:51.903Z,99.99
2018-06-29T04:59:51.916Z,99.99
2018-06-29T05:00:51.960Z,99.99
2018-06-29T05:01:51.964Z,99.99
2018-06-29T05:02:51.985Z,99.99
2018-06-29T05:03:52.011Z,99.99
2018-06-29T05:04:52.029Z,99.99
2018-06-29T05:05:52.062Z,99.99
2018-06-29T05:06:52.074Z,99.99
2018-06-29T05:07:52.100Z,99.99
2018-06-29T05:08:52.116Z,99.99
2018-06-29T05:09:52.144Z,99.99
2018-06-29T05:10:52.161Z,99.99
2018-06-29T05:11:52.181Z,99.99
2018-06-29T05:12:52.207Z,99.99
2018-06-29T05:13:52.229Z,99.99
2018-06-29T05:14:52.250Z,99.99
2018-06-29T05:15:52.271Z,99.99
2018-06-29T05:16:52.294Z,99.99
2018-06-29T05:17:52.316Z,99.99
2018-06-29T05:18:52.338Z,99.99
2018-06-29T05:19:52.358Z,99.99
2018-06-29T05:20:52.383Z,99.99
2018-06-29T05:21:52.403Z,99.99
2018-06-29T05:22:52.426Z,99.99
2018-06-29T05:23:52.447Z,99.99
2018-06-29T05:24:52.476Z,99.99
2018-06-29T05:25:52.492Z,99.99
2018-06-29T05:26:52.517Z,99.99
2018-06-29T05:27:52.542Z,99.99
2018-06-29T05:28:52.560Z,99.99
2018-06-29T05:29:52.583Z,99.99
2018-06-29T05:30:52.602Z,99.99
2018-06-29T05:31:52.626Z,99.99
2018-06-29T05:32:53.001Z,99.99
2018-06-29T05:33:52.671Z,99.99
2018-06-29T05:34:52.693Z,99.99
2018-06-29T05:35:52.752Z,99.99
2018-06-29T05:36:52.737Z,99.99
2018-06-29T05:37:52.760Z,99.99
2018-06-29T05:38:52.783Z,99.99
2018-06-29T05:39:52.808Z,99.99
2018-06-29T05:40:52.829Z,99.99
2018-06-29T05:41:52.852Z,99.99
2018-06-29T05:42:52.873Z,99.99
2018-06-29T05:43:52.895Z,99.99
2018-06-29T05:44:52.918Z,99.99
2018-06-29T05:45:52.938Z,99.99
2018-06-29T05:46:53.017Z,99.99
2018-06-29T05:47:52.982Z,99.99
2018-06-29T05:48:53.006Z,99.99
2018-06-29T05:49:53.030Z,99.99
2018-06-29T05:50:53.052Z,99.99
2018-06-29T05:51:53.075Z,99.99
2018-06-29T05:52:53.111Z,99.99
2018-06-29T05:53:53.120Z,99.78
2018-06-29T05:54:53.142Z,99.99
2018-06-29T05:55:53.169Z,99.78
2018-06-29T05:56:53.188Z,99.88
2018-06-29T05:57:53.214Z,98.63
2018-06-29T05:58:53.236Z,98.72
2018-06-29T05:59:53.261Z,98.82
2018-06-29T06:00:53.286Z,99.30
2018-06-29T06:01:53.332Z,98.91
2018-06-29T06:02:53.330Z,97.62
2018-06-29T06:03:53.357Z,97.24
2018-06-29T06:04:53.378Z,96.17
2018-06-29T06:05:53.402Z,95.21
2018-06-29T06:06:53.426Z,96.56
2018-06-29T06:07:53.453Z,96.27
2018-06-29T06:08:53.478Z,95.36
2018-06-29T06:09:53.501Z,94.20
2018-06-29T06:10:53.625Z,93.53
2018-06-29T06:11:53.553Z,93.53
2018-06-29T06:12:53.578Z,94.59
2018-06-29T06:13:53.604Z,94.97
2018-06-29T06:14:53.627Z,94.10
2018-06-29T06:15:53.650Z,93.48
2018-06-29T06:16:53.676Z,92.42
2018-06-29T06:17:53.704Z,91.84
2018-06-29T06:18:53.726Z,91.17
2018-06-29T06:19:53.752Z,91.46
2018-06-29T06:20:53.780Z,90.88
2018-06-29T06:21:53.846Z,90.59
2018-06-29T06:22:53.830Z,90.25
2018-06-29T06:23:53.857Z,89.39
2018-06-29T06:24:53.988Z,87.36
2018-06-29T06:25:53.916Z,86.82
2018-06-29T06:26:53.933Z,86.05
2018-06-29T06:27:53.960Z,86.92
2018-06-29T06:28:53.990Z,85.47
2018-06-29T06:29:54.015Z,85.77
2018-06-29T06:30:54.040Z,85.47
2018-06-29T06:31:54.065Z,85.47
2018-06-29T06:32:54.094Z,86.05
2018-06-29T06:33:54.120Z,86.82
2018-06-29T06:34:54.145Z,87.17
2018-06-29T06:35:54.176Z,88.04
2018-06-29T06:36:54.202Z,87.50
2018-06-29T06:37:54.227Z,86.82
2018-06-29T06:38:54.255Z,86.63
2018-06-29T06:39:54.280Z,87.07
2018-06-29T06:40:54.308Z,87.26
2018-06-29T06:41:54.336Z,88.23
2018-06-29T06:42:54.365Z,88.61
2018-06-29T06:43:54.389Z,89.15
2018-06-29T06:44:54.417Z,89.58
2018-06-29T06:45:54.444Z,88.61
2018-06-29T06:46:54.981Z,88.32
2018-06-29T06:47:54.500Z,88.08
2018-06-29T06:48:54.526Z,85.47
2018-06-29T06:49:54.555Z,84.65
2018-06-29T06:50:54.579Z,84.36
2018-06-29T06:51:54.609Z,83.88
2018-06-29T06:52:54.636Z,84.07
2018-06-29T06:53:54.661Z,82.57
2018-06-29T06:54:54.688Z,80.83
2018-06-29T06:55:54.718Z,81.51
2018-06-29T06:56:54.945Z,80.74
2018-06-29T06:57:54.771Z,81.02
2018-06-29T06:58:54.796Z,80.39
2018-06-29T06:59:54.825Z,79.52
2018-06-29T07:00:54.852Z,77.40
2018-06-29T07:01:54.883Z,77.50
2018-06-29T07:02:54.911Z,77.88
2018-06-29T07:03:54.937Z,77.01
2018-06-29T07:04:54.966Z,79.00
2018-06-29T07:05:54.997Z,79.19
2018-06-29T07:06:55.021Z,80.16
2018-06-29T07:07:55.049Z,80.54
2018-06-29T07:08:55.271Z,80.35
2018-06-29T07:09:55.119Z,79.00
2018-06-29T07:10:55.135Z,79.24
2018-06-29T07:11:55.162Z,77.69
2018-06-29T07:12:55.190Z,77.21
2018-06-29T07:13:55.214Z,77.21
2018-06-29T07:14:55.259Z,77.21
2018-06-29T07:15:55.369Z,76.72
2018-06-29T07:16:55.338Z,77.50
2018-06-29T07:17:55.332Z,76.82
2018-06-29T07:18:55.358Z,76.09
2018-06-29T07:19:55.384Z,75.12
2018-06-29T07:20:55.413Z,75.51
2018-06-29T07:21:55.630Z,74.35
2018-06-29T07:22:55.472Z,74.48
2018-06-29T07:23:55.498Z,74.54
2018-06-29T07:24:55.528Z,73.71
2018-06-29T07:25:55.555Z,73.52
2018-06-29T07:26:55.584Z,73.42
2018-06-29T07:27:55.615Z,73.86
2018-06-29T07:28:55.640Z,75.27
2018-06-29T07:29:55.725Z,76.92
2018-06-29T07:30:55.701Z,75.89
2018-06-29T07:31:55.737Z,74.73
2018-06-29T07:32:55.893Z,74.10
2018-06-29T07:33:57.481Z,74.73
2018-06-29T07:34:55.877Z,76.57
2018-06-29T07:35:55.886Z,74.25
2018-06-29T07:36:55.871Z,74.10
2018-06-29T07:37:55.963Z,73.80
2018-06-29T07:38:55.933Z,73.32
2018-06-29T07:39:55.957Z,72.00
2018-06-29T07:40:56.110Z,69.88
2018-06-29T07:41:56.014Z,71.23
2018-06-29T07:42:56.044Z,70.04
2018-06-29T07:43:56.073Z,70.14
2018-06-29T07:44:56.101Z,71.33
2018-06-29T07:45:56.129Z,70.81
2018-06-29T07:46:56.160Z,70.42
2018-06-29T07:47:56.187Z,70.23
2018-06-29T07:48:56.215Z,70.52
2018-06-29T07:49:56.243Z,70.65
2018-06-29T07:50:56.270Z,70.94
2018-06-29T07:51:56.301Z,71.33
2018-06-29T07:52:56.392Z,72.74
2018-06-29T07:53:56.358Z,72.42
2018-06-29T07:54:56.386Z,72.64
2018-06-29T07:55:56.410Z,71.78
2018-06-29T07:56:56.441Z,71.33
2018-06-29T07:57:56.469Z,70.36
2018-06-29T07:58:56.497Z,67.85
2018-06-29T07:59:56.527Z,67.43
2018-06-29T08:00:56.552Z,68.20
2018-06-29T08:01:56.584Z,65.37
2018-06-29T08:02:56.605Z,64.40
2018-06-29T08:03:56.752Z,64.40
2018-06-29T08:04:56.660Z,64.34
2018-06-29T08:05:56.689Z,62.79
2018-06-29T08:06:56.717Z,63.18
2018-06-29T08:07:56.744Z,63.27
2018-06-29T08:08:56.774Z,62.79
2018-06-29T08:09:56.848Z,62.79
2018-06-29T08:10:56.823Z,62.88
2018-06-29T08:11:56.950Z,62.63
2018-06-29T08:12:56.881Z,62.14
2018-06-29T08:13:56.928Z,61.76
2018-06-29T08:14:56.962Z,61.95
2018-06-29T08:15:56.967Z,61.69
2018-06-29T08:16:57.017Z,61.46
2018-06-29T08:17:57.016Z,61.56
2018-06-29T08:18:57.042Z,60.85
2018-06-29T08:19:57.183Z,61.72
2018-06-29T08:20:57.141Z,61.40
2018-06-29T08:21:57.172Z,61.69
2018-06-29T08:22:57.185Z,61.40
2018-06-29T08:23:57.254Z,60.82
2018-06-29T08:24:57.278Z,61.60
2018-06-29T08:25:57.261Z,62.47
2018-06-29T08:26:57.447Z,62.85
2018-06-29T08:27:57.500Z,62.76
2018-06-29T08:28:57.376Z,62.27
2018-06-29T08:29:57.485Z,62.11
2018-06-29T08:30:57.383Z,61.53
2018-06-29T08:31:57.398Z,61.82
2018-06-29T08:32:57.425Z,61.43
2018-06-29T08:33:57.453Z,62.11
2018-06-29T08:34:57.478Z,61.46
2018-06-29T08:35:57.508Z,60.59
2018-06-29T08:36:57.530Z,58.95
2018-06-29T08:37:57.558Z,59.36
2018-06-29T08:38:57.602Z,57.69
2018-06-29T08:39:57.612Z,58.47
2018-06-29T08:40:57.642Z,56.82
2018-06-29T08:41:57.669Z,56.92
2018-06-29T08:42:57.695Z,57.01
2018-06-29T08:43:57.723Z,56.07
2018-06-29T08:44:57.749Z,55.78
2018-06-29T08:45:57.774Z,55.98
2018-06-29T08:46:57.918Z,55.62
2018-06-29T08:47:57.830Z,54.19
2018-06-29T08:48:57.857Z,54.09
2018-06-29T08:49:57.883Z,54.77
2018-06-29T08:50:57.909Z,54.06
2018-06-29T08:51:57.939Z,54.45
2018-06-29T08:52:57.964Z,54.43
2018-06-29T08:53:57.995Z,54.52
2018-06-29T08:54:58.052Z,54.91
2018-06-29T08:55:58.050Z,54.43
2018-06-29T08:56:58.078Z,54.91
2018-06-29T08:57:58.104Z,54.94
2018-06-29T08:58:58.131Z,54.64
2018-06-29T08:59:58.158Z,55.04
2018-06-29T09:00:58.186Z,55.44
2018-06-29T09:01:58.214Z,55.26
2018-06-29T09:02:58.238Z,55.04
2018-06-29T09:03:58.265Z,55.90
2018-06-29T09:04:58.344Z,55.90
2018-06-29T09:05:58.320Z,55.04
2018-06-29T09:06:58.346Z,55.58
2018-06-29T09:07:58.374Z,55.71
2018-06-29T09:08:58.405Z,54.55
2018-06-29T09:09:58.429Z,54.16
2018-06-29T09:10:58.502Z,54.35
2018-06-29T09:11:58.485Z,54.64
2018-06-29T09:12:58.514Z,54.55
2018-06-29T09:13:58.540Z,55.49
2018-06-29T09:14:58.600Z,56.16
2018-06-29T09:15:58.597Z,55.81
2018-06-29T09:16:58.625Z,55.58
2018-06-29T09:17:58.652Z,55.52
2018-06-29T09:18:58.776Z,55.62
2018-06-29T09:19:58.705Z,55.26
2018-06-29T09:20:58.737Z,54.67
2018-06-29T09:21:58.762Z,54.67
2018-06-29T09:22:58.788Z,53.34
2018-06-29T09:23:58.818Z,53.24
2018-06-29T09:24:58.843Z,53.22
2018-06-29T09:25:58.991Z,52.83
2018-06-29T09:26:58.898Z,52.93
2018-06-29T09:27:58.926Z,52.15
2018-06-29T09:28:58.955Z,52.06
2018-06-29T09:29:59.002Z,52.42
2018-06-29T09:30:59.012Z,53.29
2018-06-29T09:31:59.037Z,52.42
2018-06-29T09:32:59.066Z,52.32
2018-06-29T09:33:59.092Z,52.25
2018-06-29T09:34:59.119Z,51.67
2018-06-29T09:35:59.148Z,51.96
2018-06-29T09:36:59.176Z,52.51
2018-06-29T09:37:59.205Z,52.51
2018-06-29T09:38:59.228Z,53.12
2018-06-29T09:39:59.283Z,52.61
2018-06-29T09:40:59.284Z,52.25
2018-06-29T09:41:59.313Z,53.22
2018-06-29T09:42:59.340Z,52.64
2018-06-29T09:43:59.366Z,52.54
2018-06-29T09:44:59.398Z,52.28
2018-06-29T09:45:59.424Z,51.89
2018-06-29T09:46:59.453Z,51.01
2018-06-29T09:47:59.596Z,50.94
2018-06-29T09:48:59.512Z,51.79
2018-06-29T09:49:59.533Z,52.08
2018-06-29T09:50:59.560Z,51.40
2018-06-29T09:51:59.589Z,51.69
2018-06-29T09:52:59.621Z,51.98
2018-06-29T09:53:59.691Z,50.89
2018-06-29T09:54:59.677Z,51.96
2018-06-29T09:55:59.703Z,51.67
2018-06-29T09:56:59.730Z,51.57
2018-06-29T09:57:59.759Z,50.89
2018-06-29T09:58:59.785Z,51.47
2018-06-29T09:59:59.812Z,50.21
2018-06-29T10:00:59.850Z,50.70
2018-06-29T10:01:59.867Z,50.99
2018-06-29T10:02:59.898Z,50.53
2018-06-29T10:03:59.923Z,49.75
2018-06-29T10:04:59.950Z,50.41
2018-06-29T10:05:59.978Z,50.04
2018-06-29T10:07:00.010Z,49.37
2018-06-29T10:08:00.039Z,49.77
2018-06-29T10:09:00.064Z,50.43
2018-06-29T10:10:00.290Z,50.43
2018-06-29T10:11:00.122Z,50.34
2018-06-29T10:12:00.149Z,50.56
2018-06-29T10:13:00.256Z,49.49
2018-06-29T10:14:00.230Z,49.51
2018-06-29T10:15:00.231Z,49.32
2018-06-29T10:16:00.260Z,48.83
2018-06-29T10:17:00.288Z,48.25
2018-06-29T10:18:00.313Z,48.22
2018-06-29T10:19:00.347Z,48.78
2018-06-29T10:20:00.470Z,49.00
2018-06-29T10:21:00.401Z,47.55
2018-06-29T10:22:00.430Z,48.90
2018-06-29T10:23:00.456Z,49.56
2018-06-29T10:24:00.483Z,50.04
2018-06-29T10:25:00.514Z,50.04
2018-06-29T10:26:00.741Z,50.04
2018-06-29T10:27:00.565Z,49.75
2018-06-29T10:28:00.616Z,50.04
2018-06-29T10:29:00.630Z,50.34
2018-06-29T10:30:00.651Z,50.24
2018-06-29T10:31:00.679Z,50.34
2018-06-29T10:32:00.712Z,49.58
2018-06-29T10:33:00.738Z,49.07
2018-06-29T10:34:00.764Z,48.97
2018-06-29T10:35:00.793Z,49.49
2018-06-29T10:36:00.882Z,49.49
2018-06-29T10:37:00.850Z,47.93
2018-06-29T10:38:00.878Z,47.83
2018-06-29T10:39:00.906Z,48.35
2018-06-29T10:40:00.933Z,48.13
2018-06-29T10:41:00.963Z,48.42
2018-06-29T10:42:00.991Z,48.25
2018-06-29T10:43:01.016Z,48.05
2018-06-29T10:44:01.046Z,46.89
2018-06-29T10:45:01.154Z,47.57
2018-06-29T10:46:01.102Z,47.45
2018-06-29T10:47:01.128Z,46.86
2018-06-29T10:48:01.161Z,47.38
2018-06-29T10:49:01.194Z,47.66
2018-06-29T10:50:01.215Z,47.18
2018-06-29T10:51:01.241Z,47.64
2018-06-29T10:52:01.273Z,47.45
2018-06-29T10:53:01.302Z,47.16
2018-06-29T10:54:01.328Z,47.03
2018-06-29T10:55:01.368Z,47.55
2018-06-29T10:56:01.383Z,48.10
2018-06-29T10:57:01.414Z,48.00
2018-06-29T10:58:01.441Z,47.74
2018-06-29T10:59:01.470Z,46.86
2018-06-29T11:00:01.498Z,47.33
2018-06-29T11:01:01.825Z,47.33
2018-06-29T11:02:01.553Z,47.52
2018-06-29T11:03:01.585Z,47.13
2018-06-29T11:04:01.612Z,47.52
2018-06-29T11:05:01.645Z,47.64
2018-06-29T11:06:01.728Z,47.35
2018-06-29T11:07:01.695Z,47.83
2018-06-29T11:08:01.719Z,47.76
2018-06-29T11:09:01.757Z,46.89
2018-06-29T11:10:01.785Z,47.23
2018-06-29T11:11:01.900Z,47.91
2018-06-29T11:12:02.084Z,48.00
2018-06-29T11:13:01.861Z,48.03
2018-06-29T11:14:01.889Z,46.48
2018-06-29T11:15:01.917Z,47.06
2018-06-29T11:16:01.946Z,46.48
2018-06-29T11:17:01.973Z,46.67
2018-06-29T11:18:02.003Z,46.19
2018-06-29T11:19:02.034Z,45.53
2018-06-29T11:20:02.057Z,45.17
2018-06-29T11:21:02.096Z,45.36
2018-06-29T11:22:02.117Z,44.38
2018-06-29T11:23:02.144Z,44.09
2018-06-29T11:24:02.220Z,43.41
2018-06-29T11:25:02.200Z,43.51
2018-06-29T11:26:02.229Z,44.09
2018-06-29T11:27:02.253Z,43.12
2018-06-29T11:28:02.284Z,43.80
2018-06-29T11:29:02.313Z,43.88
2018-06-29T11:30:02.342Z,45.34
2018-06-29T11:31:02.369Z,45.04
2018-06-29T11:32:02.398Z,44.92
2018-06-29T11:33:02.423Z,45.89
2018-06-29T11:34:02.456Z,45.82
2018-06-29T11:35:02.481Z,46.01
2018-06-29T11:36:02.593Z,46.89
2018-06-29T11:37:02.546Z,45.55
2018-06-29T11:38:02.568Z,45.28
2018-06-29T11:39:02.592Z,44.62
2018-06-29T11:40:02.623Z,43.15
2018-06-29T11:41:02.650Z,44.12
2018-06-29T11:42:02.683Z,44.38
2018-06-29T11:43:02.706Z,44.38
2018-06-29T11:44:02.801Z,44.48
2018-06-29T11:45:02.766Z,44.38
2018-06-29T11:46:02.791Z,45.28
2018-06-29T11:47:02.822Z,44.51
2018-06-29T11:48:02.850Z,43.15
2018-06-29T11:49:02.878Z,42.66
2018-06-29T11:50:02.908Z,42.18
2018-06-29T11:51:02.985Z,42.08
2018-06-29T11:52:02.965Z,41.71
2018-06-29T11:53:02.993Z,41.90
2018-06-29T11:54:03.023Z,41.51
2018-06-29T11:55:03.047Z,43.36
2018-06-29T11:56:03.079Z,41.80
2018-06-29T11:57:03.108Z,40.83
2018-06-29T11:58:03.137Z,40.25
2018-06-29T11:59:03.162Z,41.01
2018-06-29T12:00:03.192Z,41.01
2018-06-29T12:01:03.220Z,41.38
2018-06-29T12:02:03.256Z,41.96
2018-06-29T12:03:03.279Z,42.25
2018-06-29T12:04:03.312Z,42.46
2018-06-29T12:05:03.337Z,42.46
2018-06-29T12:06:03.363Z,42.46
2018-06-29T12:07:03.435Z,42.49
2018-06-29T12:08:03.422Z,42.46
2018-06-29T12:09:03.450Z,43.80
2018-06-29T12:10:03.480Z,44.29
2018-06-29T12:11:03.508Z,45.07
2018-06-29T12:12:03.534Z,45.45
2018-06-29T12:13:03.563Z,45.36
2018-06-29T12:14:03.595Z,45.18
2018-06-29T12:15:03.624Z,45.38
2018-06-29T12:16:03.651Z,44.51
2018-06-29T12:17:03.679Z,44.62
2018-06-29T12:18:03.706Z,44.04
2018-06-29T12:19:03.737Z,44.60
2018-06-29T12:20:03.764Z,45.28
2018-06-29T12:21:03.794Z,45.09
2018-06-29T12:22:03.821Z,45.28
2018-06-29T12:23:03.852Z,44.89
2018-06-29T12:24:03.879Z,44.02
2018-06-29T12:25:03.910Z,44.12
2018-06-29T12:26:03.939Z,44.99
2018-06-29T12:27:03.967Z,45.11
2018-06-29T12:28:04.077Z,45.11
2018-06-29T12:29:04.023Z,44.53
2018-06-29T12:30:04.053Z,43.95
2018-06-29T12:31:04.081Z,42.68
2018-06-29T12:32:04.111Z,42.49
2018-06-29T12:33:04.141Z,42.85
2018-06-29T12:34:04.170Z,42.95
2018-06-29T12:35:04.193Z,44.02
2018-06-29T12:36:04.225Z,43.92
2018-06-29T12:37:04.254Z,44.00
2018-06-29T12:38:04.396Z,44.58
2018-06-29T12:39:04.314Z,45.17
2018-06-29T12:40:04.339Z,45.28
2018-06-29T12:41:04.367Z,44.89
2018-06-29T12:42:04.394Z,45.01
2018-06-29T12:43:04.424Z,44.04
2018-06-29T12:44:04.456Z,44.21
2018-06-29T12:45:04.482Z,44.31
2018-06-29T12:46:04.539Z,43.34
2018-06-29T12:47:04.618Z,44.02
2018-06-29T12:48:04.566Z,44.02
2018-06-29T12:49:04.596Z,43.63
2018-06-29T12:50:04.626Z,43.75
2018-06-29T12:51:04.656Z,42.87
2018-06-29T12:52:04.681Z,42.95
2018-06-29T12:53:04.713Z,43.63